Time;durP1;ratioP1;P1;durP2;ratioP2;P2;SDS_P1;SDS_P2;PMS_P1;PMS_P2;Temp;Humidity;BMP_temperature;BMP_pressure;BME280_temperature;BME280_humidity;BME280_pressure;Samples;Min_cycle;Max_cycle;Signal;HPM_P1;HPM_P2
2021/03/08 00:02:22;;;;;;;14.20;10.27;;;6.00;1.00;;;;;;5101308;28;20455;-74
2021/03/08 00:04:49;;;;;;;20.57;13.67;;;6.00;1.00;;;;;;5089901;28;20552;-74
2021/03/08 00:07:17;;;;;;;16.53;11.37;;;6.00;1.00;;;;;;5089310;28;20495;-72
2021/03/08 00:09:44;;;;;;;15.20;12.00;;;6.00;1.00;;;;;;5105927;28;20445;-74
2021/03/08 00:12:11;;;;;;;14.90;11.13;;;5.90;1.00;;;;;;5085060;28;20448;-73
2021/03/08 00:14:38;;;;;;;16.48;11.38;;;5.90;1.00;;;;;;5106940;28;20195;-72
2021/03/08 00:17:07;;;;;;;13.73;10.77;;;5.80;1.00;;;;;;5111115;27;20281;-74
2021/03/08 00:19:35;;;;;;;18.15;11.82;;;5.80;1.00;;;;;;5106262;28;20967;-76
2021/03/08 00:22:02;;;;;;;13.97;11.43;;;5.90;1.00;;;;;;5106167;28;20198;-73
2021/03/08 00:24:30;;;;;;;17.40;12.00;;;5.80;1.00;;;;;;5087447;28;20453;-73
2021/03/08 00:26:57;;;;;;;16.47;10.90;;;5.80;1.00;;;;;;5101085;28;20530;-72
2021/03/08 00:29:25;;;;;;;15.07;11.60;;;5.80;1.00;;;;;;5106443;28;20513;-71
2021/03/08 00:31:52;;;;;;;18.45;13.25;;;5.70;1.00;;;;;;5102851;28;20196;-73
2021/03/08 00:34:19;;;;;;;18.10;11.75;;;5.70;1.00;;;;;;5104162;28;20225;-75
2021/03/08 00:36:47;;;;;;;18.20;12.17;;;5.70;1.00;;;;;;5109087;28;20215;-74
2021/03/08 00:39:14;;;;;;;17.23;12.93;;;5.70;1.00;;;;;;5107135;28;20991;-73
2021/03/08 00:41:41;;;;;;;16.93;11.03;;;5.70;1.00;;;;;;5107541;28;20456;-77
2021/03/08 00:44:09;;;;;;;16.40;11.48;;;5.70;1.00;;;;;;5102667;28;20453;-76
2021/03/08 00:46:36;;;;;;;18.30;11.60;;;5.60;1.00;;;;;;5091867;28;20187;-76
2021/03/08 00:49:04;;;;;;;14.70;11.50;;;5.50;1.00;;;;;;5105421;28;20460;-75
2021/03/08 00:51:31;;;;;;;14.73;10.80;;;5.50;1.00;;;;;;5101093;28;20557;-74
2021/03/08 00:53:59;;;;;;;16.10;12.03;;;5.50;1.00;;;;;;5099268;28;20445;-75
2021/03/08 00:56:26;;;;;;;14.93;11.27;;;5.40;1.00;;;;;;5086006;28;20459;-75
2021/03/08 00:58:53;;;;;;;13.63;11.33;;;5.40;1.00;;;;;;5104714;28;21034;-74
2021/03/08 01:01:21;;;;;;;17.93;11.80;;;5.50;1.00;;;;;;5101172;28;20467;-74
2021/03/08 01:03:48;;;;;;;14.73;10.30;;;5.30;1.00;;;;;;5084103;28;21152;-77
2021/03/08 01:06:15;;;;;;;18.20;12.15;;;5.30;1.00;;;;;;5108460;28;20249;-74
2021/03/08 01:08:42;;;;;;;13.47;10.73;;;5.30;1.00;;;;;;5102952;28;20742;-73
2021/03/08 01:11:14;;;;;;;13.85;11.85;;;5.30;1.00;;;;;;5102677;28;20978;-75
2021/03/08 01:13:41;;;;;;;15.40;11.20;;;5.40;1.00;;;;;;5105601;28;20191;-73
2021/03/08 01:16:08;;;;;;;17.07;10.30;;;5.30;1.00;;;;;;5090326;28;20449;-74
2021/03/08 01:18:36;;;;;;;14.65;10.82;;;5.40;1.00;;;;;;5086056;28;20465;-73
2021/03/08 01:21:03;;;;;;;12.48;10.15;;;5.30;1.00;;;;;;5104721;28;20252;-74
2021/03/08 01:23:30;;;;;;;17.23;12.15;;;5.30;1.00;;;;;;5105994;28;20229;-73
2021/03/08 01:25:57;;;;;;;13.43;10.00;;;5.20;1.00;;;;;;5100058;28;20655;-74
2021/03/08 01:28:25;;;;;;;16.52;11.82;;;5.20;1.00;;;;;;5082330;28;20219;-75
2021/03/08 01:30:52;;;;;;;13.85;11.18;;;5.20;1.00;;;;;;5101805;28;20196;-73
2021/03/08 01:33:20;;;;;;;14.10;10.93;;;5.20;1.00;;;;;;5105722;28;20253;-74
2021/03/08 01:35:48;;;;;;;19.35;12.10;;;5.10;1.00;;;;;;5108127;28;20191;-74
2021/03/08 01:38:15;;;;;;;13.10;9.95;;;5.10;1.00;;;;;;5106916;28;20210;-73
2021/03/08 01:40:43;;;;;;;14.05;10.13;;;5.10;1.00;;;;;;5109709;28;20190;-75
2021/03/08 01:43:11;;;;;;;15.63;10.20;;;5.00;1.00;;;;;;5101326;28;20195;-74
2021/03/08 01:45:39;;;;;;;17.00;11.82;;;5.10;1.00;;;;;;5110698;28;20254;-73
2021/03/08 01:48:08;;;;;;;16.92;10.27;;;5.10;1.00;;;;;;5108504;28;20301;-75
2021/03/08 01:50:37;;;;;;;16.57;10.50;;;4.90;1.00;;;;;;5109862;28;20191;-74
2021/03/08 01:53:06;;;;;;;15.45;11.10;;;4.90;1.00;;;;;;5110123;28;21157;-73
2021/03/08 01:55:34;;;;;;;12.43;9.25;;;5.10;1.00;;;;;;5109475;28;20738;-74
2021/03/08 01:58:01;;;;;;;14.90;10.05;;;5.00;1.00;;;;;;5108152;28;20215;-74
2021/03/08 02:00:30;;;;;;;13.60;10.55;;;4.90;1.00;;;;;;5100512;28;20191;-73
2021/03/08 02:02:59;;;;;;;14.50;10.10;;;4.90;1.00;;;;;;5109821;28;20956;-73
2021/03/08 02:05:28;;;;;;;12.65;9.02;;;4.90;1.00;;;;;;5091712;28;20695;-76
2021/03/08 02:07:56;;;;;;;13.90;9.38;;;4.90;1.00;;;;;;5103097;28;20211;-73
2021/03/08 02:10:24;;;;;;;12.85;9.00;;;4.90;1.00;;;;;;5106091;28;20198;-73
2021/03/08 02:13:06;;;;;;;13.55;9.82;;;4.90;1.00;;;;;;5090119;28;20196;-73
2021/03/08 02:15:47;;;;;;;12.90;10.35;;;4.80;1.00;;;;;;5090834;28;20244;-75
2021/03/08 02:18:22;;;;;;;14.00;10.77;;;4.80;1.00;;;;;;5110106;28;21560;-77
2021/03/08 02:21:06;;;;;;;11.30;8.73;;;4.70;1.00;;;;;;5110002;28;20195;-74
2021/03/08 02:24:03;;;;;;;13.25;8.65;;;4.70;1.00;;;;;;5103462;28;20269;-76
2021/03/08 02:26:40;;;;;;;19.65;10.30;;;4.70;1.00;;;;;;5077766;28;20201;-73
2021/03/08 02:29:24;;;;;;;14.10;9.55;;;4.60;1.00;;;;;;5107010;28;20832;-75
2021/03/08 02:31:56;;;;;;;16.13;10.88;;;4.60;1.00;;;;;;5108620;28;20187;-75
2021/03/08 02:34:28;;;;;;;31.27;17.80;;;4.60;1.00;;;;;;5103448;28;20194;-74
2021/03/08 02:37:00;;;;;;;24.10;13.02;;;4.60;1.00;;;;;;5109671;28;20235;-73
2021/03/08 02:39:31;;;;;;;21.58;11.93;;;4.60;1.00;;;;;;5092591;28;20203;-76
2021/03/08 02:42:01;;;;;;;18.73;11.55;;;4.50;1.00;;;;;;5109570;28;20738;-74
2021/03/08 02:44:32;;;;;;;15.50;10.70;;;4.60;1.00;;;;;;5107646;28;20192;-74
2021/03/08 02:47:00;;;;;;;23.13;12.27;;;4.50;1.00;;;;;;5106078;28;20225;-73
2021/03/08 02:49:31;;;;;;;17.80;11.68;;;4.40;1.00;;;;;;5107557;28;20283;-73
2021/03/08 02:52:00;;;;;;;16.08;9.90;;;4.40;1.00;;;;;;5106417;28;20194;-74
2021/03/08 02:54:30;;;;;;;13.20;9.43;;;4.40;1.00;;;;;;5107081;28;20194;-73
2021/03/08 02:57:00;;;;;;;15.13;10.45;;;4.40;1.00;;;;;;5089879;28;20822;-73
2021/03/08 02:59:30;;;;;;;14.00;9.75;;;4.40;1.00;;;;;;5090834;28;20777;-72
2021/03/08 03:01:59;;;;;;;11.85;8.90;;;4.40;1.00;;;;;;5088083;28;20201;-73
2021/03/08 03:04:28;;;;;;;14.85;9.90;;;4.40;1.00;;;;;;5107747;28;20198;-74
2021/03/08 03:06:56;;;;;;;12.25;9.05;;;4.40;1.00;;;;;;5091761;28;20264;-72
2021/03/08 03:09:25;;;;;;;13.93;9.50;;;4.30;1.00;;;;;;5107034;28;20189;-73
2021/03/08 03:11:59;;;;;;;13.55;9.55;;;4.30;1.00;;;;;;5107739;28;20288;-71
2021/03/08 03:14:27;;;;;;;11.68;8.25;;;4.30;1.00;;;;;;5108186;28;20206;-74
2021/03/08 03:16:58;;;;;;;16.90;10.38;;;4.20;1.00;;;;;;5106691;28;20218;-73
2021/03/08 03:19:28;;;;;;;13.57;10.07;;;4.20;1.00;;;;;;5106084;28;20209;-73
2021/03/08 03:22:00;;;;;;;11.65;8.40;;;4.10;1.00;;;;;;5108069;28;20202;-74
2021/03/08 03:24:29;;;;;;;13.60;8.80;;;4.10;1.00;;;;;;5101932;28;20254;-73
2021/03/08 03:26:58;;;;;;;13.80;9.05;;;4.10;1.00;;;;;;5100364;28;20244;-72
2021/03/08 03:29:26;;;;;;;13.60;9.50;;;4.10;1.00;;;;;;5107416;28;20210;-72
2021/03/08 03:31:53;;;;;;;13.27;8.90;;;4.20;1.00;;;;;;5108021;28;20575;-71
2021/03/08 03:34:22;;;;;;;10.85;8.32;;;4.10;1.00;;;;;;5083766;28;20226;-73
2021/03/08 03:36:52;;;;;;;14.85;10.15;;;4.10;1.00;;;;;;5124133;27;20233;-73
2021/03/08 03:39:19;;;;;;;13.73;9.45;;;4.10;1.00;;;;;;5106337;28;20224;-73
2021/03/08 03:41:47;;;;;;;13.18;9.80;;;4.00;1.00;;;;;;5089657;28;20604;-73
2021/03/08 03:44:14;;;;;;;13.13;9.80;;;4.00;1.00;;;;;;5106871;28;20210;-72
2021/03/08 03:46:43;;;;;;;11.32;9.07;;;4.00;1.00;;;;;;5105793;28;20205;-72
2021/03/08 03:49:11;;;;;;;11.45;9.32;;;4.10;1.00;;;;;;5098866;28;20204;-73
2021/03/08 03:51:38;;;;;;;12.52;9.55;;;4.20;1.00;;;;;;5105699;28;20262;-72
2021/03/08 03:54:07;;;;;;;10.15;8.80;;;4.10;1.00;;;;;;5107785;28;20193;-73
2021/03/08 03:56:36;;;;;;;11.52;10.10;;;3.90;1.00;;;;;;5106409;28;20199;-73
2021/03/08 03:59:08;;;;;;;13.40;9.15;;;3.90;1.00;;;;;;5083619;28;20213;-72
2021/03/08 04:01:58;;;;;;;13.63;10.10;;;3.90;1.00;;;;;;5106031;28;20193;-72
2021/03/08 04:04:31;;;;;;;16.38;10.10;;;3.80;1.00;;;;;;5106615;28;20662;-73
2021/03/08 04:07:00;;;;;;;10.65;8.40;;;3.90;1.00;;;;;;5109625;28;20280;-74
2021/03/08 04:09:29;;;;;;;13.05;8.77;;;3.90;1.00;;;;;;5104465;28;20254;-74
2021/03/08 04:11:59;;;;;;;12.30;7.85;;;3.90;1.00;;;;;;5108242;28;20191;-72
2021/03/08 04:14:30;;;;;;;13.45;10.13;;;3.90;1.00;;;;;;5104469;28;20200;-75
2021/03/08 04:16:59;;;;;;;13.75;9.60;;;3.80;1.00;;;;;;5106424;28;20300;-72
2021/03/08 04:19:33;;;;;;;14.52;8.85;;;3.80;1.00;;;;;;5105061;28;20209;-73
2021/03/08 04:22:04;;;;;;;14.70;9.30;;;3.70;1.00;;;;;;5108217;28;20195;-72
2021/03/08 04:24:35;;;;;;;12.85;7.80;;;3.70;1.00;;;;;;5103963;28;20203;-72
2021/03/08 04:27:05;;;;;;;11.30;8.48;;;3.70;1.00;;;;;;5099493;28;20875;-72
2021/03/08 04:29:34;;;;;;;12.63;9.02;;;3.60;1.00;;;;;;5104788;28;20268;-72
2021/03/08 04:32:14;;;;;;;9.38;8.27;;;3.60;1.00;;;;;;5108296;28;20220;-72
2021/03/08 04:34:42;;;;;;;12.57;8.30;;;3.50;1.00;;;;;;5103593;28;20197;-73
2021/03/08 04:37:12;;;;;;;12.32;8.93;;;3.50;1.00;;;;;;5107782;28;20216;-73
2021/03/08 04:39:40;;;;;;;11.57;8.70;;;3.60;1.00;;;;;;5087655;28;20190;-73
2021/03/08 04:42:08;;;;;;;9.52;6.93;;;3.60;1.00;;;;;;5108647;28;20200;-74
2021/03/08 04:44:36;;;;;;;11.93;9.27;;;3.50;1.00;;;;;;5106029;28;20285;-73
2021/03/08 04:47:04;;;;;;;12.38;8.25;;;3.50;1.00;;;;;;5104871;28;20297;-74
2021/03/08 04:49:33;;;;;;;12.52;8.18;;;3.50;1.00;;;;;;5106692;28;20192;-74
2021/03/08 04:52:01;;;;;;;11.95;8.75;;;3.60;1.00;;;;;;5104727;28;20206;-74
2021/03/08 04:54:29;;;;;;;12.65;8.60;;;3.70;1.00;;;;;;5104844;28;20204;-73
2021/03/08 04:56:57;;;;;;;13.48;9.10;;;3.50;1.00;;;;;;5105614;28;20215;-74
2021/03/08 04:59:24;;;;;;;11.18;8.02;;;3.50;1.00;;;;;;5105985;28;20217;-73
2021/03/08 05:01:54;;;;;;;12.38;8.38;;;3.50;1.00;;;;;;5087173;28;20755;-75
2021/03/08 05:04:23;;;;;;;12.65;8.90;;;3.40;1.00;;;;;;5087818;28;20820;-74
2021/03/08 05:06:52;;;;;;;11.15;8.65;;;3.40;1.00;;;;;;5106578;28;20221;-74
2021/03/08 05:09:20;;;;;;;11.93;9.00;;;3.40;1.00;;;;;;5106301;28;20696;-74
2021/03/08 05:11:50;;;;;;;11.38;7.68;;;3.40;1.00;;;;;;5104174;28;20186;-74
2021/03/08 05:14:21;;;;;;;15.20;9.57;;;3.40;1.00;;;;;;5107820;27;20215;-74
2021/03/08 05:16:49;;;;;;;10.18;7.80;;;3.40;1.00;;;;;;5112442;28;20288;-74
2021/03/08 05:19:20;;;;;;;14.68;9.30;;;3.30;1.00;;;;;;5109214;28;20225;-73
2021/03/08 05:21:48;;;;;;;12.13;8.75;;;3.30;1.00;;;;;;5112530;28;20189;-74
2021/03/08 05:24:17;;;;;;;10.10;8.95;;;3.30;1.00;;;;;;5108946;28;20808;-75
2021/03/08 05:26:44;;;;;;;11.30;8.98;;;3.30;1.00;;;;;;5110126;28;20224;-73
2021/03/08 05:29:12;;;;;;;12.55;8.63;;;3.50;1.00;;;;;;5110095;28;20273;-74
2021/03/08 05:31:43;;;;;;;13.23;9.38;;;3.30;1.00;;;;;;5091655;28;20242;-74
2021/03/08 05:34:12;;;;;;;12.23;9.25;;;3.20;1.00;;;;;;5111861;28;20278;-74
2021/03/08 05:36:44;;;;;;;11.35;8.27;;;3.20;1.00;;;;;;5107883;28;20191;-72
2021/03/08 05:39:12;;;;;;;11.23;8.48;;;3.20;1.00;;;;;;5101086;28;20231;-75
2021/03/08 05:41:54;;;;;;;11.48;9.32;;;3.20;1.00;;;;;;5090926;28;20210;-74
2021/03/08 05:44:23;;;;;;;10.40;8.00;;;3.20;1.00;;;;;;5102860;28;20222;-76
2021/03/08 05:47:22;;;;;;;13.27;9.27;;;3.10;1.00;;;;;;5106050;28;20199;-75
2021/03/08 05:50:08;;;;;;;10.60;7.90;;;3.10;1.00;;;;;;5106191;28;20283;-74
2021/03/08 05:53:08;;;;;;;11.30;8.75;;;3.10;1.00;;;;;;5104206;28;20737;-73
2021/03/08 05:56:00;;;;;;;14.18;9.05;;;3.10;1.00;;;;;;5098365;27;20565;-76
2021/03/08 05:58:48;;;;;;;14.38;9.23;;;3.10;1.00;;;;;;5104954;27;20793;-75
2021/03/08 06:02:02;;;;;;;12.05;9.90;;;3.10;1.00;;;;;;5085389;28;20242;-74
2021/03/08 06:05:18;;;;;;;15.70;11.60;;;3.10;1.00;;;;;;5024405;28;20461;-75
2021/03/08 06:08:16;;;;;;;13.90;9.82;;;3.60;1.00;;;;;;5098637;28;20467;-73
2021/03/08 06:10:48;;;;;;;12.73;8.63;;;3.30;1.00;;;;;;5104973;27;20196;-76
2021/03/08 06:13:20;;;;;;;9.82;8.23;;;3.20;1.00;;;;;;5116172;27;20209;-74
2021/03/08 06:15:55;;;;;;;15.20;9.13;;;3.10;1.00;;;;;;5081961;28;20208;-75
2021/03/08 06:18:31;;;;;;;16.15;9.75;;;3.10;1.00;;;;;;5100503;28;20218;-74
2021/03/08 06:21:01;;;;;;;10.25;8.30;;;3.10;1.00;;;;;;5082092;28;20203;-75
2021/03/08 06:23:28;;;;;;;16.30;10.05;;;3.20;1.00;;;;;;5099245;27;20222;-75
2021/03/08 06:25:56;;;;;;;10.23;8.05;;;3.20;1.00;;;;;;5098403;28;20197;-75
2021/03/08 06:28:24;;;;;;;14.57;9.25;;;3.10;1.00;;;;;;5105915;27;20222;-75
2021/03/08 06:30:52;;;;;;;11.30;8.60;;;3.20;1.00;;;;;;5088763;28;20313;-75
2021/03/08 06:33:20;;;;;;;16.27;9.52;;;3.10;1.00;;;;;;5104278;27;20272;-75
2021/03/08 06:35:47;;;;;;;10.68;8.65;;;3.10;1.00;;;;;;5105703;28;20237;-76
2021/03/08 06:38:16;;;;;;;13.90;9.30;;;3.10;1.00;;;;;;5089460;28;20732;-74
2021/03/08 06:40:43;;;;;;;14.57;9.77;;;3.30;1.00;;;;;;5085126;28;20193;-76
2021/03/08 06:43:10;;;;;;;14.75;9.05;;;3.20;1.00;;;;;;5105989;27;20195;-75
2021/03/08 06:45:37;;;;;;;13.70;9.30;;;3.10;1.00;;;;;;5116836;27;20187;-77
2021/03/08 06:48:06;;;;;;;15.82;10.30;;;3.10;1.00;;;;;;5083755;28;20261;-76
2021/03/08 06:50:33;;;;;;;13.10;9.82;;;3.20;1.00;;;;;;5105985;27;20192;-75
2021/03/08 06:53:00;;;;;;;15.55;10.43;;;3.30;1.00;;;;;;5101663;28;20847;-74
2021/03/08 06:55:29;;;;;;;13.45;9.85;;;3.40;1.00;;;;;;5101293;27;20377;-74
2021/03/08 06:58:17;;;;;;;13.02;10.48;;;3.40;1.00;;;;;;5078749;28;20212;-74
2021/03/08 07:00:44;;;;;;;11.68;9.27;;;3.40;1.00;;;;;;5100352;27;20211;-74
2021/03/08 07:03:29;;;;;;;13.40;8.88;;;3.50;1.00;;;;;;5087708;27;20211;-75
2021/03/08 07:06:15;;;;;;;14.70;13.07;;;3.50;1.00;;;;;;5086237;27;20487;-75
2021/03/08 07:08:43;;;;;;;16.52;9.77;;;3.90;1.00;;;;;;5070835;28;20224;-76
2021/03/08 07:11:22;;;;;;;14.57;10.63;;;3.80;1.00;;;;;;5094388;27;20639;-75
2021/03/08 07:13:56;;;;;;;17.63;10.75;;;3.80;1.00;;;;;;5093418;27;20301;-73
2021/03/08 07:16:36;;;;;;;12.90;10.23;;;3.80;1.00;;;;;;5096765;27;20199;-75
2021/03/08 07:19:04;;;;;;;16.23;10.80;;;3.80;1.00;;;;;;5093311;28;20216;-72
2021/03/08 07:21:31;;;;;;;13.60;10.20;;;3.90;1.00;;;;;;5087728;27;20201;-74
2021/03/08 07:24:12;;;;;;;14.05;9.50;;;3.80;1.00;;;;;;5090042;28;20207;-74
2021/03/08 07:26:50;;;;;;;13.52;9.10;;;3.90;1.00;;;;;;5070420;28;20263;-73
2021/03/08 07:29:18;;;;;;;14.88;10.15;;;4.00;1.00;;;;;;5092196;27;20201;-74
2021/03/08 07:31:47;;;;;;;16.75;11.45;;;4.20;1.00;;;;;;5071663;28;20202;-74
2021/03/08 07:34:46;;;;;;;13.93;9.77;;;4.10;1.00;;;;;;5072272;28;20210;-76
2021/03/08 07:37:14;;;;;;;16.85;11.60;;;4.20;1.00;;;;;;5087422;28;20622;-74
2021/03/08 07:39:51;;;;;;;15.55;10.50;;;4.30;1.00;;;;;;5072422;28;20225;-74
2021/03/08 07:42:19;;;;;;;15.18;9.70;;;4.40;1.00;;;;;;5068293;28;20209;-75
2021/03/08 07:44:51;;;;;;;14.43;10.45;;;4.50;1.00;;;;;;5085948;28;20199;-73
2021/03/08 07:47:21;;;;;;;13.40;8.93;;;4.60;1.00;;;;;;5098355;28;20215;-73
2021/03/08 07:49:48;;;;;;;13.25;7.97;;;4.80;1.00;;;;;;5083580;28;20289;-73
2021/03/08 07:52:17;;;;;;;12.98;9.85;;;5.10;1.00;;;;;;5082361;28;20187;-76
2021/03/08 07:54:52;;;;;;;12.82;10.38;;;5.30;1.00;;;;;;5090878;28;20225;-76
2021/03/08 07:57:21;;;;;;;11.95;9.77;;;5.40;1.00;;;;;;5098738;27;20229;-75
2021/03/08 07:59:48;;;;;;;12.60;9.80;;;5.50;1.00;;;;;;5102069;28;20226;-74
2021/03/08 08:02:15;;;;;;;15.75;10.82;;;5.60;1.00;;;;;;5097545;28;20449;-75
2021/03/08 08:05:01;;;;;;;12.63;9.63;;;5.70;1.00;;;;;;5094451;28;20195;-75
2021/03/08 08:07:30;;;;;;;17.53;11.30;;;6.30;1.00;;;;;;5116973;27;20473;-74
2021/03/08 08:10:02;;;;;;;12.37;9.77;;;6.50;1.00;;;;;;5099003;28;20928;-76
2021/03/08 08:12:33;;;;;;;15.80;10.47;;;6.60;1.00;;;;;;5086091;28;20445;-76
2021/03/08 08:15:04;;;;;;;13.93;10.03;;;6.80;1.00;;;;;;5103785;28;20992;-76
2021/03/08 08:17:35;;;;;;;14.00;11.80;;;7.10;1.00;;;;;;5099734;28;20530;-76
2021/03/08 08:20:05;;;;;;;13.33;11.10;;;7.40;1.00;;;;;;5102284;28;20563;-75
2021/03/08 08:22:35;;;;;;;13.93;11.13;;;7.60;1.00;;;;;;5112146;27;20495;-74
2021/03/08 08:25:04;;;;;;;14.90;10.97;;;7.80;1.00;;;;;;5105838;28;20792;-75
2021/03/08 08:27:34;;;;;;;18.80;11.30;;;8.20;1.00;;;;;;5086775;28;20639;-73
2021/03/08 08:30:03;;;;;;;14.40;10.00;;;8.40;1.00;;;;;;5078055;28;20473;-75
2021/03/08 08:32:47;;;;;;;11.83;10.60;;;8.50;1.00;;;;;;5108281;28;20941;-74
2021/03/08 08:35:27;;;;;;;11.73;9.63;;;8.60;1.00;;;;;;5086196;28;20538;-73
2021/03/08 08:38:16;;;;;;;12.57;11.20;;;8.70;1.00;;;;;;5106192;28;20472;-75
2021/03/08 08:40:44;;;;;;;13.77;10.40;;;9.10;1.00;;;;;;5083341;28;20448;-75
2021/03/08 08:43:22;;;;;;;12.10;10.90;;;9.30;1.00;;;;;;5108031;28;21354;-74
2021/03/08 08:45:52;;;;;;;12.33;10.20;;;9.50;1.00;;;;;;5106200;28;20926;-76
2021/03/08 08:48:21;;;;;;;13.03;10.70;;;9.80;1.00;;;;;;5103477;28;20467;-75
2021/03/08 08:50:50;;;;;;;11.50;10.37;;;10.00;1.00;;;;;;5107630;28;20443;-76
2021/03/08 08:53:41;;;;;;;12.53;10.00;;;10.20;1.00;;;;;;5109927;28;20795;-75
2021/03/08 08:56:10;;;;;;;10.60;9.60;;;10.30;1.00;;;;;;5106625;28;20445;-74
2021/03/08 08:58:45;;;;;;;10.47;9.37;;;10.60;1.00;;;;;;5108533;28;20499;-75
2021/03/08 09:01:28;;;;;;;10.07;9.07;;;10.90;1.00;;;;;;5086460;28;20458;-72
2021/03/08 09:03:59;;;;;;;10.50;9.40;;;11.10;1.00;;;;;;5110338;27;20794;-75
2021/03/08 09:06:44;;;;;;;12.30;10.13;;;11.30;1.00;;;;;;5089768;28;20792;-75
2021/03/08 09:09:13;;;;;;;12.27;10.00;;;11.50;1.00;;;;;;5107358;28;20791;-74
2021/03/08 09:11:48;;;;;;;10.40;8.80;;;11.60;1.00;;;;;;5091819;28;20494;-75
2021/03/08 09:14:42;;;;;;;10.63;9.53;;;11.80;1.00;;;;;;5105842;28;20457;-76
2021/03/08 09:17:19;;;;;;;11.57;10.57;;;12.00;1.00;;;;;;5088518;27;20530;-73
2021/03/08 09:19:49;;;;;;;10.47;9.00;;;12.20;1.00;;;;;;5106489;28;20472;-75
2021/03/08 09:22:47;;;;;;;9.80;8.90;;;12.40;1.00;;;;;;5103239;28;20455;-74
2021/03/08 09:25:20;;;;;;;11.90;10.80;;;12.70;1.00;;;;;;5123706;27;20454;-77
2021/03/08 09:27:50;;;;;;;11.20;10.10;;;12.80;1.00;;;;;;5105338;28;20472;-76
2021/03/08 09:30:20;;;;;;;13.10;9.50;;;12.90;1.00;;;;;;5106464;28;20626;-76
2021/03/08 09:32:50;;;;;;;13.83;9.87;;;13.20;1.00;;;;;;5111543;28;20454;-77
2021/03/08 09:35:19;;;;;;;9.50;8.60;;;13.30;1.00;;;;;;5085550;28;20485;-77
2021/03/08 09:37:49;;;;;;;11.90;9.60;;;13.30;1.00;;;;;;5103567;28;20548;-77
2021/03/08 09:40:19;;;;;;;10.10;8.77;;;13.50;1.00;;;;;;5084827;28;20472;-78
2021/03/08 09:42:47;;;;;;;10.02;9.02;;;13.80;1.00;;;;;;5087090;28;20541;-80
2021/03/08 09:45:23;;;;;;;9.67;8.77;;;14.20;1.00;;;;;;5103725;28;20210;-77
2021/03/08 09:47:53;;;;;;;9.90;8.90;;;14.20;1.00;;;;;;5105747;28;20563;-78
2021/03/08 09:50:37;;;;;;;9.57;8.67;;;14.30;1.00;;;;;;5087993;28;20451;-77
2021/03/08 09:53:06;;;;;;;9.63;8.70;;;14.40;1.00;;;;;;5106969;28;20459;-78
2021/03/08 09:55:35;;;;;;;9.27;8.43;;;14.50;1.00;;;;;;5090111;28;20959;-77
2021/03/08 09:58:18;;;;;;;9.00;8.10;;;14.70;1.00;;;;;;5107863;28;20564;-77
2021/03/08 10:00:48;;;;;;;9.10;8.30;;;14.90;1.00;;;;;;5100043;28;20885;-77
2021/03/08 10:03:16;;;;;;;11.20;8.03;;;15.10;1.00;;;;;;5102093;28;20508;-81
2021/03/08 10:05:45;;;;;;;9.17;8.27;;;15.10;1.00;;;;;;5105155;28;20528;-79
2021/03/08 10:08:14;;;;;;;8.97;8.17;;;15.20;1.00;;;;;;5116002;27;20978;-78
2021/03/08 10:10:43;;;;;;;9.63;8.73;;;15.10;1.00;;;;;;5125416;27;20554;-78
2021/03/08 10:13:11;;;;;;;8.07;7.37;;;15.30;1.00;;;;;;5089488;28;20509;-75
2021/03/08 10:15:49;;;;;;;9.23;8.43;;;15.40;1.00;;;;;;5089217;28;21081;-77
2021/03/08 10:18:19;;;;;;;7.60;6.90;;;15.30;1.00;;;;;;5085166;28;20472;-76
2021/03/08 10:20:55;;;;;;;7.87;7.27;;;15.30;1.00;;;;;;5090884;28;20931;-77
2021/03/08 10:23:27;;;;;;;7.47;6.73;;;15.30;1.00;;;;;;5106031;27;20841;-77
2021/03/08 10:26:03;;;;;;;8.10;7.30;;;15.50;1.00;;;;;;5099258;28;20466;-79
2021/03/08 10:28:36;;;;;;;6.90;6.30;;;15.60;1.00;;;;;;5089425;28;20464;-79
2021/03/08 10:31:04;;;;;;;8.80;8.00;;;15.60;1.00;;;;;;5086795;28;20449;-78
2021/03/08 10:33:33;;;;;;;7.90;7.10;;;15.80;1.00;;;;;;5105098;27;20554;-77
2021/03/08 10:36:02;;;;;;;8.30;7.60;;;15.80;1.00;;;;;;5100735;28;20455;-77
2021/03/08 10:38:32;;;;;;;8.27;7.20;;;16.00;1.00;;;;;;5110408;28;21001;-77
2021/03/08 10:41:01;;;;;;;7.77;7.17;;;16.10;1.00;;;;;;5110930;28;20503;-77
2021/03/08 10:43:30;;;;;;;7.90;7.30;;;16.20;1.00;;;;;;5107097;28;20444;-76
2021/03/08 10:46:00;;;;;;;8.17;7.37;;;16.50;1.00;;;;;;5093155;28;21201;-79
2021/03/08 10:48:29;;;;;;;11.10;8.93;;;16.60;1.00;;;;;;5087040;28;20561;-75
2021/03/08 10:51:03;;;;;;;8.77;8.07;;;16.70;1.00;;;;;;5093972;28;20453;-81
2021/03/08 10:53:56;;;;;;;11.20;10.03;;;16.90;1.00;;;;;;5108344;28;20526;-79
2021/03/08 10:56:24;;;;;;;8.07;7.37;;;17.30;1.00;;;;;;5104015;28;20467;-78
2021/03/08 10:58:52;;;;;;;7.77;7.17;;;17.50;1.00;;;;;;5103452;28;20476;-80
2021/03/08 11:01:19;;;;;;;8.07;7.37;;;17.60;1.00;;;;;;5088180;28;20801;-79
2021/03/08 11:03:47;;;;;;;8.13;7.33;;;17.70;1.00;;;;;;5122260;27;20804;-73
2021/03/08 11:06:16;;;;;;;9.17;8.30;;;17.90;1.00;;;;;;5101512;28;20521;-78
2021/03/08 11:08:56;;;;;;;8.90;8.20;;;18.00;9.50;;;;;;5103534;28;20468;-74
2021/03/08 11:11:27;;;;;;;9.33;8.60;;;18.20;1.00;;;;;;5098664;28;20467;-74
2021/03/08 11:13:59;;;;;;;9.30;8.50;;;18.10;1.00;;;;;;5105260;28;20826;-75
2021/03/08 11:16:27;;;;;;;8.63;7.93;;;18.20;1.00;;;;;;5104356;28;20456;-76
2021/03/08 11:19:14;;;;;;;8.00;7.20;;;18.20;7.70;;;;;;5083758;28;21039;-76
2021/03/08 11:21:41;;;;;;;8.97;8.00;;;18.40;1.00;;;;;;5105143;28;20454;-74
2021/03/08 11:24:19;;;;;;;8.20;7.50;;;18.50;1.00;;;;;;5090278;28;20535;-74
2021/03/08 11:27:09;;;;;;;8.30;7.50;;;18.90;2.10;;;;;;5104648;28;20461;-74
2021/03/08 11:29:36;;;;;;;8.30;7.60;;;19.10;3.80;;;;;;5105957;28;20455;-77
2021/03/08 11:32:04;;;;;;;8.17;7.47;;;19.00;3.50;;;;;;5078392;28;20459;-76
2021/03/08 11:34:39;;;;;;;7.37;6.87;;;19.10;3.50;;;;;;5097749;28;20504;-76
2021/03/08 11:37:08;;;;;;;6.77;6.07;;;18.70;1.00;;;;;;5089944;28;20577;-77
2021/03/08 11:39:40;;;;;;;7.80;7.17;;;18.40;1.00;;;;;;5100787;28;20488;-79
2021/03/08 11:42:08;;;;;;;8.07;7.13;;;18.00;1.00;;;;;;5085883;28;20457;-77
2021/03/08 11:44:35;;;;;;;7.83;6.90;;;17.50;1.00;;;;;;5104686;28;20465;-79
2021/03/08 11:47:03;;;;;;;8.17;7.40;;;17.20;1.00;;;;;;5102208;28;20848;-78
2021/03/08 11:49:32;;;;;;;7.50;6.90;;;16.70;1.00;;;;;;5083110;28;20464;-77
2021/03/08 11:52:01;;;;;;;8.37;7.57;;;16.50;1.00;;;;;;5115372;27;20464;-80
2021/03/08 11:54:28;;;;;;;7.80;7.20;;;16.20;1.00;;;;;;5095854;28;20546;-79
2021/03/08 11:56:56;;;;;;;7.80;7.10;;;16.00;1.00;;;;;;5101556;27;20481;-78
2021/03/08 11:59:23;;;;;;;6.70;6.10;;;15.80;1.00;;;;;;5102704;28;20559;-77
2021/03/08 12:01:51;;;;;;;7.20;6.57;;;15.50;1.00;;;;;;5085678;28;20446;-79
2021/03/08 12:04:18;;;;;;;7.27;6.53;;;15.40;1.00;;;;;;5086810;28;21098;-81
2021/03/08 12:06:45;;;;;;;7.07;6.30;;;15.20;1.00;;;;;;5106285;28;20481;-77
2021/03/08 12:09:13;;;;;;;6.67;6.07;;;15.10;1.00;;;;;;5104638;28;20513;-76
2021/03/08 12:11:41;;;;;;;6.40;5.90;;;15.00;1.00;;;;;;5100615;28;20452;-77
2021/03/08 12:14:08;;;;;;;6.50;5.97;;;14.80;1.00;;;;;;5085158;28;20455;-77
2021/03/08 12:16:36;;;;;;;8.30;5.93;;;14.80;1.00;;;;;;5107468;28;20463;-76
2021/03/08 12:19:04;;;;;;;7.27;6.67;;;14.60;1.00;;;;;;5102733;28;20472;-77
2021/03/08 12:21:32;;;;;;;7.03;6.43;;;14.70;1.00;;;;;;5099917;28;21226;-77
2021/03/08 12:23:59;;;;;;;7.10;5.70;;;14.70;1.00;;;;;;5103842;28;20463;-76
2021/03/08 12:26:28;;;;;;;6.60;6.00;;;14.40;1.00;;;;;;5098678;28;20510;-79
2021/03/08 12:28:56;;;;;;;6.60;6.10;;;14.30;1.00;;;;;;5112523;27;20541;-81
2021/03/08 12:31:24;;;;;;;8.00;7.30;;;14.30;1.00;;;;;;5100715;28;20460;-76
2021/03/08 12:33:51;;;;;;;6.60;6.00;;;14.10;1.00;;;;;;5101862;28;20489;-77
2021/03/08 12:36:18;;;;;;;6.53;5.40;;;14.10;1.00;;;;;;5103465;28;20479;-76
2021/03/08 12:38:46;;;;;;;5.10;4.60;;;14.00;1.00;;;;;;5104837;28;20568;-77
2021/03/08 12:41:13;;;;;;;6.27;5.67;;;14.00;1.00;;;;;;5104183;28;20459;-75
2021/03/08 12:43:42;;;;;;;6.40;5.80;;;14.10;1.00;;;;;;5103369;28;21000;-79
2021/03/08 12:46:10;;;;;;;5.50;5.00;;;14.00;1.00;;;;;;5078820;28;20455;-76
2021/03/08 12:48:37;;;;;;;6.57;6.10;;;14.00;1.00;;;;;;5077807;28;20501;-75
2021/03/08 12:51:05;;;;;;;7.13;6.43;;;14.00;1.00;;;;;;5105434;28;20455;-75
2021/03/08 12:53:32;;;;;;;7.47;6.00;;;13.90;1.00;;;;;;5102727;28;20517;-78
2021/03/08 12:55:59;;;;;;;5.03;4.53;;;13.90;1.00;;;;;;5104099;28;20509;-75
2021/03/08 12:58:26;;;;;;;6.40;5.80;;;13.90;1.00;;;;;;5101664;28;20479;-73
2021/03/08 13:00:54;;;;;;;5.33;4.60;;;14.00;1.00;;;;;;5095537;28;20491;-74
2021/03/08 13:03:24;;;;;;;7.53;6.70;;;14.00;1.00;;;;;;5103772;28;20526;-74
2021/03/08 13:05:52;;;;;;;6.10;5.53;;;14.00;1.00;;;;;;5101350;28;20562;-75
2021/03/08 13:08:19;;;;;;;5.63;5.13;;;14.00;1.00;;;;;;5097883;28;20552;-74
2021/03/08 13:10:47;;;;;;;7.37;6.50;;;14.00;1.00;;;;;;5102584;28;20457;-77
2021/03/08 13:13:14;;;;;;;6.50;5.87;;;14.00;1.00;;;;;;5095208;28;20465;-74
2021/03/08 13:15:42;;;;;;;6.37;5.77;;;14.00;1.00;;;;;;5104760;28;20452;-74